الصفحة الرئيسية
METAR-TAF:

METAR-TAF

مطار :

Yap, مايكرونيزيا

دائرة عرض: 09-29N, خط طول: 138-05E, ارتفاع: 28 متر

مراقبة الطقس الحالي

تاريخ ووقت الإصدار 5 دقيقة قبل الساعة 15:50UTC
ريح 3 عقدةمن اتجاهات متغيرة
درجة الحرارة 28°درجة مئوية
الرطوبة 84%
ضغط 1010 hPa
الرؤية: 19.3 كم
غيوم قليلة على ارتفاع 1600 قدم
غيوم مفككة على ارتفاع 30000 قدم

METAR: PTYA 221550Z VRB03KT 12SM FEW016 BKN300 28/25 A2983 RMK SLP103 T02800252

زمن: 01:55 (15:55 UTC)

توقعات

تاريخ ووقت الإصدار 4ساعات و 35 دقيقة قبل الساعة 11:20UTC
التوقعات صالحة من22 الساعة 12 UTC إلى 23 الساعة 12 UTC
ريح 7 عقدة من الشرق
الرؤية: 10 كم
غيوم قليلة على ارتفاع 1600 قدم
غيوم متفرقة على ارتفاع 4000 قدم
زخات في الجوار

TAF: PTYA 221120Z 2212/2312 08007KT P6SM VCSH FEW016 SCT040

أرصاد الطقس والتوقعات من أكثر من 4000 مطار (تقارير الطقس للمطار METAR والتنبؤ بالطقس بالمطارTAF).

المحطات المتاحة هي النقط الصفراء والحمراء على الخريطة.

حرك المؤشر فوق النقطة لمعرفة اسم المحطة.

ثم انقر لمعرفة أرصاد وتوقعات الطقس.

لتغيير الخارطة: اضغط على الأزرار الخضراء مع رمز الصليب الأسود للتكبير. على الزر الأخضر مع شرطة للتصغير، أو على الأسهم الخضراء للخرائط المجاورة.


METAR-TAF: